createdAt,value
2018-01-15T00:00:57.209Z,-0.30
2018-01-15T00:03:26.102Z,-0.30
2018-01-15T00:05:54.239Z,-0.40
2018-01-15T00:08:22.409Z,-0.40
2018-01-15T00:10:50.519Z,-0.40
2018-01-15T00:13:18.649Z,-0.40
2018-01-15T00:15:46.806Z,-0.50
2018-01-15T00:18:14.963Z,-0.50
2018-01-15T00:20:43.085Z,-0.50
2018-01-15T00:23:11.988Z,-0.50
2018-01-15T00:25:40.868Z,-0.60
2018-01-15T00:28:09.781Z,-0.60
2018-01-15T00:30:37.909Z,-0.70
2018-01-15T00:33:06.029Z,-0.70
2018-01-15T00:35:34.163Z,-0.70
2018-01-15T00:38:02.286Z,-0.70
2018-01-15T00:40:30.425Z,-0.70
2018-01-15T00:42:59.318Z,-0.70
2018-01-15T00:45:27.471Z,-0.80
2018-01-15T00:47:56.357Z,-0.80
2018-01-15T00:50:25.249Z,-0.80
2018-01-15T00:52:54.151Z,-0.80
2018-01-15T00:55:23.034Z,-0.90
2018-01-15T00:57:51.949Z,-0.90
2018-01-15T01:00:20.076Z,-1.00
2018-01-15T01:02:48.210Z,-0.90
2018-01-15T01:05:16.345Z,-0.90
2018-01-15T01:07:45.239Z,-1.00
2018-01-15T01:10:14.151Z,-1.00
2018-01-15T01:12:42.272Z,-1.10
2018-01-15T01:15:10.406Z,-1.10
2018-01-15T01:17:38.577Z,-1.10
2018-01-15T01:20:06.697Z,-1.10
2018-01-15T01:22:34.829Z,-1.20
2018-01-15T01:25:02.960Z,-1.20
2018-01-15T01:27:31.874Z,-1.20
2018-01-15T01:29:59.989Z,-1.20
2018-01-15T01:32:28.135Z,-1.20
2018-01-15T01:34:56.258Z,-1.20
2018-01-15T01:37:25.181Z,-1.30
2018-01-15T01:39:53.306Z,-1.30
2018-01-15T01:42:21.448Z,-1.30
2018-01-15T01:44:49.575Z,-1.30
2018-01-15T01:47:18.461Z,-1.40
2018-01-15T01:49:47.360Z,-1.40
2018-01-15T01:52:15.487Z,-1.40
2018-01-15T01:54:43.642Z,-1.40
2018-01-15T01:57:11.775Z,-1.40
2018-01-15T01:59:40.667Z,-1.40
2018-01-15T02:02:09.579Z,-1.40
2018-01-15T02:04:37.680Z,-1.50
2018-01-15T02:07:06.611Z,-1.40
2018-01-15T02:09:35.491Z,-1.50
2018-01-15T02:12:04.394Z,-1.50
2018-01-15T02:14:33.307Z,-1.50
2018-01-15T02:17:01.418Z,-1.50
2018-01-15T02:19:29.553Z,-1.50
2018-01-15T02:21:57.678Z,-1.50
2018-01-15T02:24:25.820Z,-1.50
2018-01-15T02:26:53.936Z,-1.50
2018-01-15T02:29:22.826Z,-1.40
2018-01-15T02:31:51.742Z,-1.40
2018-01-15T02:34:19.858Z,-1.40
2018-01-15T02:36:48.018Z,-1.40
2018-01-15T02:39:16.144Z,-1.30
2018-01-15T02:41:45.033Z,-1.30
2018-01-15T02:44:14.018Z,-1.30
2018-01-15T02:46:42.897Z,-1.30
2018-01-15T02:49:11.886Z,-1.20
2018-01-15T02:51:40.779Z,-1.20
2018-01-15T02:54:08.930Z,-1.20
2018-01-15T02:56:37.068Z,-1.10
2018-01-15T02:59:05.173Z,-1.10
2018-01-15T03:01:33.311Z,-1.10
2018-01-15T03:04:01.442Z,-1.10
2018-01-15T03:06:30.343Z,-1.00
2018-01-15T03:08:59.242Z,-1.00
2018-01-15T03:11:27.436Z,-1.00
2018-01-15T03:13:56.300Z,-1.00
2018-01-15T03:16:25.214Z,-1.00
2018-01-15T03:18:54.090Z,-0.90
2018-01-15T03:21:22.213Z,-0.90
2018-01-15T03:23:50.354Z,-0.90
2018-01-15T03:26:18.481Z,-0.90
2018-01-15T03:28:47.389Z,-0.80
2018-01-15T03:31:15.842Z,-0.80
2018-01-15T03:33:44.747Z,-0.80
2018-01-15T03:36:13.652Z,-0.70
2018-01-15T03:38:41.788Z,-0.80
2018-01-15T03:41:09.913Z,-0.70
2018-01-15T03:43:38.047Z,-0.70
2018-01-15T03:46:06.962Z,-0.70
2018-01-15T03:48:35.083Z,-0.70
2018-01-15T03:51:03.223Z,-0.70
2018-01-15T03:53:31.346Z,-0.70
2018-01-15T03:55:59.472Z,-0.70
2018-01-15T03:58:27.604Z,-0.70
2018-01-15T04:00:56.497Z,-0.70
2018-01-15T04:03:25.418Z,-0.80
2018-01-15T04:05:53.538Z,-0.80
2018-01-15T04:08:21.660Z,-0.80
2018-01-15T04:10:49.802Z,-0.80
2018-01-15T04:13:18.688Z,-0.90
2018-01-15T04:15:47.604Z,-0.90
2018-01-15T04:18:15.736Z,-1.00
2018-01-15T04:20:43.865Z,-1.00
2018-01-15T04:23:12.012Z,-1.00
2018-01-15T04:25:40.138Z,-1.00
2018-01-15T04:28:08.282Z,-1.00
2018-01-15T04:30:36.416Z,-1.10
2018-01-15T04:33:05.335Z,-1.10
2018-01-15T04:35:33.454Z,-1.10
2018-01-15T04:38:01.614Z,-1.10
2018-01-15T04:40:29.754Z,-1.20
2018-01-15T04:42:57.884Z,-1.20
2018-01-15T04:45:26.797Z,-1.20
2018-01-15T04:47:54.926Z,-1.20
2018-01-15T04:50:23.048Z,-1.20
2018-01-15T04:52:51.184Z,-1.30
2018-01-15T04:55:19.317Z,-1.30
2018-01-15T04:57:47.484Z,-1.30
2018-01-15T05:00:15.624Z,-1.30
2018-01-15T05:02:44.619Z,-1.30
2018-01-15T05:05:13.511Z,-1.30
2018-01-15T05:07:41.677Z,-1.30
2018-01-15T05:10:10.588Z,-1.30
2018-01-15T05:12:38.739Z,-1.30
2018-01-15T05:15:08.365Z,-1.20
2018-01-15T05:17:36.548Z,-1.30
2018-01-15T05:20:05.430Z,-1.20
2018-01-15T05:22:33.547Z,-1.20
2018-01-15T05:25:01.675Z,-1.10
2018-01-15T05:27:29.808Z,-1.10
2018-01-15T05:29:58.697Z,-1.10
2018-01-15T05:32:27.601Z,-1.10
2018-01-15T05:34:56.491Z,-1.00
2018-01-15T05:37:24.671Z,-1.10
2018-01-15T05:39:52.802Z,-1.00
2018-01-15T05:42:20.932Z,-1.00
2018-01-15T05:44:49.071Z,-1.00
2018-01-15T05:47:17.995Z,-1.00
2018-01-15T05:49:46.138Z,-1.00
2018-01-15T05:52:15.173Z,-0.90
2018-01-15T05:54:43.330Z,-0.90
2018-01-15T05:57:11.456Z,-0.80
2018-01-15T05:59:39.697Z,-0.80
2018-01-15T06:02:07.955Z,-0.80
2018-01-15T06:04:36.914Z,-0.80
2018-01-15T06:07:05.814Z,-0.70
2018-01-15T06:09:34.736Z,-0.70
2018-01-15T06:12:02.877Z,-0.70
2018-01-15T06:14:31.764Z,-0.70
2018-01-15T06:17:00.677Z,-0.70
2018-01-15T06:19:29.571Z,-0.60
2018-01-15T06:21:57.699Z,-0.70
2018-01-15T06:24:25.866Z,-0.60
2018-01-15T06:26:54.098Z,-0.60
2018-01-15T06:29:22.202Z,-0.60
2018-01-15T06:31:50.345Z,-0.60
2018-01-15T06:34:18.530Z,-0.60
2018-01-15T06:36:46.672Z,-0.60
2018-01-15T06:39:14.821Z,-0.60
2018-01-15T06:41:43.714Z,-0.50
2018-01-15T06:44:12.615Z,-0.60
2018-01-15T06:46:40.739Z,-0.60
2018-01-15T06:49:08.870Z,-0.60
2018-01-15T06:51:37.060Z,-0.60
2018-01-15T06:54:05.946Z,-0.50
2018-01-15T06:56:34.082Z,-0.50
2018-01-15T06:59:02.962Z,-0.50
2018-01-15T07:01:31.107Z,-0.50
2018-01-15T07:03:59.240Z,-0.50
2018-01-15T07:06:27.368Z,-0.50
2018-01-15T07:08:55.497Z,-0.40
2018-01-15T07:11:23.638Z,-0.40
2018-01-15T07:13:52.637Z,-0.30
2018-01-15T07:16:21.523Z,-0.40
2018-01-15T07:18:50.506Z,-0.30
2018-01-15T07:21:19.416Z,-0.30
2018-01-15T07:23:47.551Z,-0.30
2018-01-15T07:26:15.683Z,-0.30
2018-01-15T07:28:43.826Z,-0.30
2018-01-15T07:31:12.705Z,-0.30
2018-01-15T07:33:41.600Z,-0.30
2018-01-15T07:36:10.496Z,-0.30
2018-01-15T07:38:38.641Z,-0.30
2018-01-15T07:41:06.813Z,-0.30
2018-01-15T07:43:34.922Z,-0.20
2018-01-15T07:46:03.080Z,-0.20
2018-01-15T07:48:31.976Z,-0.20
2018-01-15T07:51:00.105Z,-0.20
2018-01-15T07:53:28.246Z,-0.20
2018-01-15T07:55:56.388Z,-0.10
2018-01-15T07:58:25.287Z,-0.10
2018-01-15T08:00:53.442Z,-0.10
2018-01-15T08:03:22.334Z,0.00
2018-01-15T08:05:51.228Z,0.00
2018-01-15T08:08:20.118Z,0.00
2018-01-15T08:10:49.023Z,0.10
2018-01-15T08:13:17.145Z,0.00
2018-01-15T08:15:46.770Z,0.10
2018-01-15T08:18:14.896Z,0.10
2018-01-15T08:20:43.019Z,0.10
2018-01-15T08:23:11.918Z,0.20
2018-01-15T08:25:40.802Z,0.20
2018-01-15T08:28:09.707Z,0.30
2018-01-15T08:30:37.827Z,0.30
2018-01-15T08:33:05.953Z,0.30
2018-01-15T08:35:34.067Z,0.30
2018-01-15T08:38:02.197Z,0.40
2018-01-15T08:40:30.339Z,0.40
2018-01-15T08:42:58.489Z,0.50
2018-01-15T08:45:26.645Z,0.50
2018-01-15T08:47:54.777Z,0.60
2018-01-15T08:50:23.740Z,0.70
2018-01-15T08:52:51.870Z,0.70
2018-01-15T08:55:19.993Z,0.80
2018-01-15T08:57:48.146Z,0.80
2018-01-15T09:00:16.279Z,0.90
2018-01-15T09:02:44.401Z,0.90
2018-01-15T09:05:12.540Z,1.00
2018-01-15T09:07:40.648Z,1.10
2018-01-15T09:10:08.794Z,1.10
2018-01-15T09:12:36.922Z,1.20
2018-01-15T09:15:05.809Z,1.30
2018-01-15T09:17:34.706Z,1.30
2018-01-15T09:20:03.585Z,1.40
2018-01-15T09:22:32.478Z,1.50
2018-01-15T09:25:01.374Z,1.50
2018-01-15T09:27:30.263Z,1.50
2018-01-15T09:29:59.143Z,1.60
2018-01-15T09:32:28.198Z,1.60
2018-01-15T09:34:56.309Z,1.60
2018-01-15T09:37:25.204Z,1.60
2018-01-15T09:39:54.298Z,1.60
2018-01-15T09:42:23.586Z,1.70
2018-01-15T09:44:51.888Z,1.60
2018-01-15T09:47:20.775Z,1.70
2018-01-15T09:49:48.908Z,1.70
2018-01-15T09:52:18.643Z,1.70
2018-01-15T09:54:47.542Z,1.80
2018-01-15T09:57:15.678Z,1.70
2018-01-15T09:59:44.194Z,1.80
2018-01-15T10:02:12.316Z,1.90
2018-01-15T10:04:40.446Z,1.90
2018-01-15T10:07:08.599Z,2.00
2018-01-15T10:09:37.536Z,2.20
2018-01-15T10:12:05.692Z,2.10
2018-01-15T10:14:34.141Z,2.20
2018-01-15T10:17:03.042Z,2.40
2018-01-15T10:19:31.925Z,2.50
2018-01-15T10:22:00.855Z,2.70
2018-01-15T10:24:28.975Z,2.60
2018-01-15T10:29:20.258Z,2.90
2018-01-15T10:31:48.387Z,3.10
2018-01-15T10:34:17.288Z,3.30
2018-01-15T10:36:46.238Z,3.40
2018-01-15T10:39:14.362Z,3.40
2018-01-15T10:41:42.495Z,3.60
2018-01-15T10:44:10.623Z,3.70
2018-01-15T10:46:38.764Z,3.80
2018-01-15T10:49:07.755Z,4.00
2018-01-15T10:51:36.635Z,4.10
2018-01-15T10:54:05.534Z,4.30
2018-01-15T10:56:33.649Z,4.30
2018-01-15T10:59:01.805Z,4.40
2018-01-15T11:01:29.918Z,4.50
2018-01-15T11:03:58.032Z,4.60
2018-01-15T11:06:26.145Z,4.80
2018-01-15T11:08:54.352Z,4.90
2018-01-15T11:11:23.309Z,5.40
2018-01-15T11:13:51.420Z,5.40
2018-01-15T11:16:20.358Z,6.10
2018-01-15T11:18:48.450Z,6.10
2018-01-15T11:21:16.587Z,6.50
2018-01-15T11:23:44.726Z,7.10
2018-01-15T11:26:13.600Z,8.70
2018-01-15T11:28:41.730Z,8.70
2018-01-15T11:31:10.177Z,9.70
2018-01-15T11:33:38.392Z,10.80
2018-01-15T11:36:06.516Z,12.00
2018-01-15T11:38:35.398Z,14.30
2018-01-15T11:41:04.297Z,15.20
2018-01-15T11:43:33.174Z,16.10
2018-01-15T11:46:02.117Z,16.90
2018-01-15T11:48:30.218Z,16.80
2018-01-15T11:50:58.345Z,17.70
2018-01-15T11:53:26.507Z,18.50
2018-01-15T11:55:55.390Z,19.60
2018-01-15T11:58:23.520Z,19.60
2018-01-15T12:00:51.664Z,20.20
2018-01-15T12:03:19.794Z,20.70
2018-01-15T12:05:48.757Z,21.90
2018-01-15T12:08:16.869Z,21.80
2018-01-15T12:10:45.024Z,22.40
2018-01-15T12:13:13.924Z,23.10
2018-01-15T12:15:42.911Z,23.50
2018-01-15T12:18:11.823Z,23.70
2018-01-15T12:20:39.953Z,23.60
2018-01-15T12:23:08.109Z,23.80
2018-01-15T12:25:36.230Z,24.10
2018-01-15T12:28:04.348Z,24.40
2018-01-15T12:30:32.488Z,24.70
2018-01-15T12:33:00.604Z,25.00
2018-01-15T12:35:28.741Z,25.30
2018-01-15T12:37:56.871Z,25.60
2018-01-15T12:40:25.040Z,25.80
2018-01-15T12:42:53.936Z,26.20
2018-01-15T12:45:22.894Z,26.40
2018-01-15T12:47:51.039Z,26.30
2018-01-15T12:50:19.173Z,26.40
2018-01-15T12:52:48.066Z,26.20
2018-01-15T12:55:16.949Z,25.90
2018-01-15T12:57:45.852Z,22.40
2018-01-15T13:00:14.752Z,19.70
2018-01-15T13:02:42.885Z,19.60
2018-01-15T13:05:11.021Z,17.70
2018-01-15T13:10:34.799Z,15.10
2018-01-15T13:13:02.949Z,14.70
2018-01-15T13:15:31.929Z,13.90
2018-01-15T13:18:00.823Z,13.70
2018-01-15T13:20:29.716Z,13.50
2018-01-15T13:22:58.633Z,13.50
2018-01-15T13:25:26.775Z,13.50
2018-01-15T13:27:55.678Z,14.10
2018-01-15T13:30:23.811Z,14.10
2018-01-15T13:32:51.950Z,14.60
2018-01-15T13:35:20.071Z,14.50
2018-01-15T13:37:49.082Z,14.10
2018-01-15T13:40:17.378Z,14.10
2018-01-15T13:42:45.514Z,13.60
2018-01-15T13:45:14.404Z,12.50
2018-01-15T13:47:42.527Z,12.50
2018-01-15T13:50:12.206Z,12.10
2018-01-15T13:52:42.405Z,11.70
2018-01-15T13:55:10.590Z,11.40
2018-01-15T13:57:39.511Z,10.70
2018-01-15T14:00:08.409Z,10.40
2018-01-15T14:02:36.536Z,10.40
2018-01-15T14:05:05.531Z,10.00
2018-01-15T14:07:34.446Z,9.80
2018-01-15T14:10:04.864Z,9.80
2018-01-15T14:12:33.760Z,9.60
2018-01-15T14:15:01.884Z,9.50
2018-01-15T14:17:29.994Z,9.50
2018-01-15T14:19:58.127Z,9.40
2018-01-15T14:22:26.240Z,9.30
2018-01-15T14:24:54.373Z,9.10
2018-01-15T14:27:22.485Z,9.00
2018-01-15T14:29:51.399Z,8.80
2018-01-15T14:32:19.524Z,8.70
2018-01-15T14:34:47.630Z,8.60
2018-01-15T14:37:15.784Z,8.50
2018-01-15T14:39:44.033Z,8.40
2018-01-15T14:42:12.023Z,8.30
2018-01-15T14:44:41.172Z,8.10
2018-01-15T14:47:09.395Z,8.10
2018-01-15T14:49:38.282Z,8.00
2018-01-15T14:52:07.159Z,7.90
2018-01-15T14:54:36.061Z,7.80
2018-01-15T14:57:04.935Z,7.70
2018-01-15T14:59:33.076Z,7.60
2018-01-15T15:02:01.204Z,7.60
2018-01-15T15:04:29.431Z,7.50
2018-01-15T15:06:57.523Z,7.40
2018-01-15T15:09:25.632Z,7.30
2018-01-15T15:11:53.803Z,7.30
2018-01-15T15:14:22.667Z,7.10
2018-01-15T15:16:51.565Z,7.00
2018-01-15T15:19:20.460Z,6.90
2018-01-15T15:21:49.354Z,6.90
2018-01-15T15:24:18.246Z,6.80
2018-01-15T15:26:47.177Z,6.70
2018-01-15T15:29:15.308Z,6.70
2018-01-15T15:31:44.190Z,6.60
2018-01-15T15:34:13.086Z,6.50
2018-01-15T15:36:41.235Z,6.50
2018-01-15T15:39:09.386Z,6.40
2018-01-15T15:41:37.507Z,6.40
2018-01-15T15:44:05.615Z,6.30
2018-01-15T15:46:33.748Z,6.20
2018-01-15T15:49:01.885Z,6.20
2018-01-15T15:51:30.016Z,6.10
2018-01-15T15:53:58.137Z,6.10
2018-01-15T15:56:27.033Z,6.00
2018-01-15T15:58:55.983Z,5.90
2018-01-15T16:01:24.111Z,5.90
2018-01-15T16:03:52.997Z,5.80
2018-01-15T16:06:21.903Z,5.70
2018-01-15T16:08:50.050Z,5.70
2018-01-15T16:11:18.935Z,5.60
2018-01-15T16:13:47.892Z,5.60
2018-01-15T16:16:15.999Z,5.60
2018-01-15T16:18:44.121Z,5.50
2018-01-15T16:21:12.325Z,5.40
2018-01-15T16:23:40.463Z,5.30
2018-01-15T16:26:08.576Z,5.30
2018-01-15T16:28:38.209Z,5.20
2018-01-15T16:31:07.118Z,5.10
2018-01-15T16:33:35.230Z,5.10
2018-01-15T16:36:03.369Z,5.00
2018-01-15T16:38:31.489Z,5.00
2018-01-15T16:41:01.154Z,4.90
2018-01-15T16:43:29.289Z,4.90
2018-01-15T16:45:58.190Z,4.90
2018-01-15T16:48:27.119Z,4.80
2018-01-15T16:50:55.976Z,4.80
2018-01-15T16:53:24.126Z,4.80
2018-01-15T16:55:53.010Z,4.70
2018-01-15T16:58:21.237Z,4.70
2018-01-15T17:00:49.286Z,4.70
2018-01-15T17:03:17.467Z,4.70
2018-01-15T17:05:46.344Z,4.60
2018-01-15T17:08:14.481Z,4.60
2018-01-15T17:10:42.613Z,4.60
2018-01-15T17:13:10.735Z,4.50
2018-01-15T17:15:38.857Z,4.50
2018-01-15T17:18:06.977Z,4.50
2018-01-15T17:20:35.136Z,4.50
2018-01-15T17:23:03.269Z,4.50
2018-01-15T17:25:31.404Z,4.50
2018-01-15T17:28:00.429Z,4.50
2018-01-15T17:30:29.295Z,4.40
2018-01-15T17:32:58.189Z,4.40
2018-01-15T17:35:27.105Z,4.40
2018-01-15T17:37:55.204Z,4.40
2018-01-15T17:40:23.353Z,4.40
2018-01-15T17:42:51.474Z,4.40
2018-01-15T17:45:19.598Z,4.40
2018-01-15T17:47:47.751Z,4.40
2018-01-15T17:50:15.872Z,4.40
2018-01-15T17:52:44.009Z,4.30
2018-01-15T17:55:12.161Z,4.30
2018-01-15T17:57:40.324Z,4.30
2018-01-15T18:00:09.203Z,4.30
2018-01-15T18:02:38.087Z,4.30
2018-01-15T18:05:07.010Z,4.30
2018-01-15T18:07:35.133Z,4.30
2018-01-15T18:10:03.286Z,4.20
2018-01-15T18:12:31.414Z,4.20
2018-01-15T18:14:59.555Z,4.20
2018-01-15T18:17:27.674Z,4.20
2018-01-15T18:19:55.816Z,4.20
2018-01-15T18:22:23.924Z,4.20
2018-01-15T18:24:52.046Z,4.20
2018-01-15T18:27:20.245Z,4.20
2018-01-15T18:29:49.151Z,4.10
2018-01-15T18:32:17.313Z,4.10
2018-01-15T18:34:46.464Z,4.10
2018-01-15T18:37:14.584Z,4.10
2018-01-15T18:39:43.475Z,4.00
2018-01-15T18:42:11.616Z,4.00
2018-01-15T18:44:39.791Z,4.00
2018-01-15T18:47:07.916Z,3.90
2018-01-15T18:49:36.017Z,3.90
2018-01-15T18:52:05.674Z,3.80
2018-01-15T18:54:34.748Z,3.80
2018-01-15T18:57:02.884Z,3.80
2018-01-15T18:59:31.003Z,3.80
2018-01-15T19:01:59.893Z,3.70
2018-01-15T19:04:28.026Z,3.70
2018-01-15T19:06:56.156Z,3.70
2018-01-15T19:09:24.301Z,3.70
2018-01-15T19:11:53.187Z,3.70
2018-01-15T19:14:22.110Z,3.70
2018-01-15T19:16:50.229Z,3.70
2018-01-15T19:19:18.346Z,3.70
2018-01-15T19:21:46.502Z,3.70
2018-01-15T19:24:15.500Z,3.70
2018-01-15T19:26:43.648Z,3.70
2018-01-15T19:29:11.781Z,3.70
2018-01-15T19:31:39.936Z,3.60
2018-01-15T19:34:08.572Z,3.60
2018-01-15T19:36:49.604Z,3.60
2018-01-15T19:39:18.636Z,3.60
2018-01-15T19:41:46.783Z,3.50
2018-01-15T19:44:29.577Z,3.50
2018-01-15T19:47:03.342Z,3.50
2018-01-15T19:49:38.088Z,3.60
2018-01-15T19:52:12.012Z,3.50
2018-01-15T19:54:45.743Z,3.50
2018-01-15T19:57:19.583Z,3.50
2018-01-15T19:59:54.917Z,3.40
2018-01-15T20:02:30.321Z,3.40
2018-01-15T20:05:04.223Z,3.40
2018-01-15T20:07:37.969Z,3.40
2018-01-15T20:10:11.801Z,3.40
2018-01-15T20:12:40.796Z,3.40
2018-01-15T20:15:09.679Z,3.30
2018-01-15T20:17:38.697Z,3.20
2018-01-15T20:20:07.590Z,3.20
2018-01-15T20:22:35.721Z,3.20
2018-01-15T20:25:04.687Z,3.20
2018-01-15T20:27:32.878Z,3.20
2018-01-15T20:30:01.203Z,3.20
2018-01-15T20:32:29.323Z,3.20
2018-01-15T20:34:57.490Z,3.30
2018-01-15T20:37:25.795Z,3.30
2018-01-15T20:39:54.713Z,3.30
2018-01-15T20:42:22.978Z,3.30
2018-01-15T20:44:51.992Z,3.40
2018-01-15T20:47:20.197Z,3.40
2018-01-15T20:49:48.402Z,3.40
2018-01-15T20:52:17.383Z,3.40
2018-01-15T20:54:45.538Z,3.40
2018-01-15T20:57:13.781Z,3.40
2018-01-15T20:59:41.939Z,3.40
2018-01-15T21:02:10.110Z,3.50
2018-01-15T21:04:38.289Z,3.50
2018-01-15T21:07:06.500Z,3.50
2018-01-15T21:09:34.637Z,3.50
2018-01-15T21:12:02.792Z,3.50
2018-01-15T21:14:30.968Z,3.50
2018-01-15T21:16:59.897Z,3.50
2018-01-15T21:19:28.118Z,3.50
2018-01-15T21:21:57.053Z,3.30
2018-01-15T21:24:25.440Z,3.30
2018-01-15T21:26:53.553Z,3.30
2018-01-15T21:29:22.885Z,3.40
2018-01-15T21:31:51.024Z,3.30
2018-01-15T21:34:19.943Z,3.40
2018-01-15T21:36:48.314Z,3.30
2018-01-15T21:39:16.461Z,3.30
2018-01-15T21:41:45.808Z,3.30
2018-01-15T21:44:13.921Z,3.30
2018-01-15T21:46:42.055Z,3.30
2018-01-15T21:49:10.215Z,3.30
2018-01-15T21:51:38.371Z,3.30
2018-01-15T21:54:07.257Z,3.30
2018-01-15T21:56:35.419Z,3.30
2018-01-15T21:59:04.322Z,3.30
2018-01-15T22:01:32.447Z,3.30
2018-01-15T22:04:00.589Z,3.20
2018-01-15T22:06:29.035Z,3.20
2018-01-15T22:08:57.140Z,3.20
2018-01-15T22:11:25.267Z,3.20
2018-01-15T22:13:54.210Z,3.30
2018-01-15T22:16:22.361Z,3.20
2018-01-15T22:18:50.493Z,3.20
2018-01-15T22:21:18.652Z,3.20
2018-01-15T22:23:46.806Z,3.20
2018-01-15T22:26:15.060Z,3.20
2018-01-15T22:28:44.116Z,3.20
2018-01-15T22:31:13.005Z,3.30
2018-01-15T22:33:42.009Z,3.30
2018-01-15T22:36:10.928Z,3.30
2018-01-15T22:38:39.278Z,3.30
2018-01-15T22:41:08.171Z,3.30
2018-01-15T22:43:36.305Z,3.30
2018-01-15T22:46:04.464Z,3.40
2018-01-15T22:48:32.575Z,3.40
2018-01-15T22:51:01.503Z,3.50
2018-01-15T22:53:29.990Z,3.50
2018-01-15T22:55:58.123Z,3.50
2018-01-15T22:58:27.281Z,3.60
2018-01-15T23:00:55.399Z,3.60
2018-01-15T23:03:23.515Z,3.60
2018-01-15T23:05:51.855Z,3.50
2018-01-15T23:08:20.738Z,3.60
2018-01-15T23:10:49.638Z,3.70
2018-01-15T23:13:17.768Z,3.70
2018-01-15T23:15:45.875Z,3.70
2018-01-15T23:18:14.002Z,3.70
2018-01-15T23:20:42.120Z,3.80
2018-01-15T23:23:10.241Z,3.80
2018-01-15T23:25:38.360Z,3.80
2018-01-15T23:28:07.238Z,3.90
2018-01-15T23:30:36.169Z,3.90
2018-01-15T23:33:04.287Z,3.90
2018-01-15T23:35:33.234Z,4.00
2018-01-15T23:38:01.350Z,4.00
2018-01-15T23:40:29.482Z,4.00
2018-01-15T23:42:57.609Z,4.10
2018-01-15T23:45:26.505Z,4.10
2018-01-15T23:47:55.395Z,4.20
2018-01-15T23:50:24.308Z,4.20
2018-01-15T23:52:52.438Z,4.20
2018-01-15T23:55:21.337Z,4.30
2018-01-15T23:57:50.222Z,4.30
